createdAt,value
2022-10-06T00:01:20.918Z,13.70
2022-10-06T00:03:50.182Z,13.67
2022-10-06T00:06:19.377Z,13.65
2022-10-06T00:08:48.242Z,13.64
2022-10-06T00:11:17.725Z,13.65
2022-10-06T00:13:45.702Z,13.65
2022-10-06T00:16:17.450Z,13.64
2022-10-06T00:18:46.412Z,13.64
2022-10-06T00:21:15.837Z,13.66
2022-10-06T00:23:43.720Z,13.66
2022-10-06T00:26:13.492Z,13.67
2022-10-06T00:28:41.459Z,13.66
2022-10-06T00:31:09.444Z,13.65
2022-10-06T00:33:37.848Z,13.62
2022-10-06T00:36:05.954Z,13.61
2022-10-06T00:38:36.041Z,13.59
2022-10-06T00:41:04.116Z,13.60
2022-10-06T00:43:48.293Z,13.60
2022-10-06T00:46:24.313Z,13.62
2022-10-06T00:48:59.770Z,13.61
2022-10-06T00:51:30.014Z,13.61
2022-10-06T00:53:59.264Z,13.60
2022-10-06T00:56:27.420Z,13.60
2022-10-06T00:58:55.279Z,13.57
2022-10-06T01:01:23.230Z,13.54
2022-10-06T01:03:56.567Z,13.51
2022-10-06T01:06:24.421Z,13.51
2022-10-06T01:08:52.821Z,13.49
2022-10-06T01:11:22.399Z,13.49
2022-10-06T01:13:50.623Z,13.51
2022-10-06T01:16:23.261Z,13.54
2022-10-06T01:18:51.806Z,13.57
2022-10-06T01:21:27.908Z,13.58
2022-10-06T01:23:58.436Z,13.61
2022-10-06T01:26:28.607Z,13.62
2022-10-06T01:28:57.039Z,13.59
2022-10-06T01:31:25.527Z,13.57
2022-10-06T01:33:54.017Z,13.52
2022-10-06T01:36:22.476Z,13.52
2022-10-06T01:38:50.394Z,13.51
2022-10-06T01:41:19.666Z,13.50
2022-10-06T01:43:47.571Z,13.50
2022-10-06T01:46:15.524Z,13.52
2022-10-06T01:48:43.413Z,13.55
2022-10-06T01:51:16.001Z,13.60
2022-10-06T01:53:44.243Z,13.67
2022-10-06T01:56:12.688Z,13.71
2022-10-06T01:58:41.960Z,13.78
2022-10-06T02:01:11.508Z,13.85
2022-10-06T02:03:40.608Z,13.90
2022-10-06T02:06:09.326Z,13.92
2022-10-06T02:08:37.368Z,13.92
2022-10-06T02:11:10.367Z,13.87
2022-10-06T02:13:38.654Z,13.79
2022-10-06T02:16:09.417Z,13.72
2022-10-06T02:18:37.889Z,13.71
2022-10-06T02:21:05.919Z,13.67
2022-10-06T02:23:44.609Z,13.64
2022-10-06T02:26:13.710Z,13.63
2022-10-06T02:28:41.613Z,13.63
2022-10-06T02:31:11.056Z,13.62
2022-10-06T02:33:40.370Z,13.62
2022-10-06T02:36:09.621Z,13.62
2022-10-06T02:38:37.501Z,13.65
2022-10-06T02:41:05.446Z,13.68
2022-10-06T02:43:34.810Z,13.72
2022-10-06T02:46:04.453Z,13.77
2022-10-06T02:48:34.728Z,13.82
2022-10-06T02:51:04.934Z,13.86
2022-10-06T02:53:32.780Z,13.88
2022-10-06T02:56:00.856Z,13.89
2022-10-06T02:58:30.103Z,13.87
2022-10-06T03:01:03.028Z,13.86
2022-10-06T03:03:31.448Z,13.84
2022-10-06T03:06:04.864Z,13.82
2022-10-06T03:08:33.220Z,13.82
2022-10-06T03:11:02.525Z,13.83
2022-10-06T03:13:31.700Z,13.82
2022-10-06T03:15:59.799Z,13.80
2022-10-06T03:18:28.022Z,13.80
2022-10-06T03:21:01.449Z,13.79
2022-10-06T03:23:30.795Z,13.78
2022-10-06T03:25:58.868Z,13.77
2022-10-06T03:28:27.337Z,13.79
2022-10-06T03:30:55.681Z,13.78
2022-10-06T03:33:23.509Z,13.75
2022-10-06T03:35:59.781Z,13.76
2022-10-06T03:38:27.915Z,13.77
2022-10-06T03:41:05.764Z,13.77
2022-10-06T03:43:33.785Z,13.78
2022-10-06T03:46:02.456Z,13.84
2022-10-06T03:48:31.148Z,13.85
2022-10-06T03:51:00.845Z,13.87
2022-10-06T03:53:30.086Z,13.88
2022-10-06T03:56:02.153Z,13.90
2022-10-06T03:58:32.590Z,13.92
2022-10-06T04:01:02.766Z,13.94
2022-10-06T04:03:31.097Z,13.96
2022-10-06T04:06:00.828Z,13.99
2022-10-06T04:08:29.697Z,13.98
2022-10-06T04:11:05.892Z,13.97
2022-10-06T04:13:35.366Z,13.95
2022-10-06T04:16:11.324Z,13.96
2022-10-06T04:18:39.281Z,13.97
2022-10-06T04:21:07.590Z,13.99
2022-10-06T04:23:36.509Z,13.99
2022-10-06T04:26:09.449Z,14.01
2022-10-06T04:28:40.004Z,14.00
2022-10-06T04:31:12.955Z,14.00
2022-10-06T04:33:40.965Z,13.99
2022-10-06T04:36:16.948Z,13.99
2022-10-06T04:38:44.892Z,14.01
2022-10-06T04:41:14.579Z,14.00
2022-10-06T04:43:45.777Z,14.00
2022-10-06T04:46:40.790Z,13.97
2022-10-06T04:49:02.132Z,13.97
2022-10-06T04:51:30.096Z,13.99
2022-10-06T04:53:58.060Z,14.01
2022-10-06T04:56:27.738Z,14.03
2022-10-06T04:58:58.175Z,14.03
2022-10-06T05:01:28.614Z,14.06
2022-10-06T05:03:57.801Z,14.06
2022-10-06T05:06:27.358Z,14.09
2022-10-06T05:08:56.921Z,14.11
2022-10-06T05:11:26.233Z,14.12
2022-10-06T05:13:57.658Z,14.14
2022-10-06T05:16:27.703Z,14.13
2022-10-06T05:18:55.843Z,14.13
2022-10-06T05:21:25.730Z,14.15
2022-10-06T05:23:53.786Z,14.16
2022-10-06T05:26:23.296Z,14.18
2022-10-06T05:28:51.372Z,14.20
2022-10-06T05:31:22.518Z,14.18
2022-10-06T05:33:50.718Z,14.18
2022-10-06T05:36:20.084Z,14.18
2022-10-06T05:38:48.549Z,14.20
2022-10-06T05:41:17.869Z,14.19
2022-10-06T05:43:46.845Z,14.19
2022-10-06T05:46:17.693Z,14.22
2022-10-06T05:48:48.263Z,14.22
2022-10-06T05:51:16.371Z,14.19
2022-10-06T05:53:44.655Z,14.17
2022-10-06T05:56:14.882Z,14.13
2022-10-06T05:58:44.992Z,14.11
2022-10-06T06:01:15.367Z,14.06
2022-10-06T06:03:47.796Z,14.06
2022-10-06T06:06:22.710Z,14.08
2022-10-06T06:08:54.336Z,14.09
2022-10-06T06:11:25.393Z,14.06
2022-10-06T06:13:53.570Z,13.99
2022-10-06T06:16:20.557Z,13.92
2022-10-06T06:18:48.748Z,13.81
2022-10-06T06:21:16.674Z,13.70
2022-10-06T06:23:47.135Z,13.57
2022-10-06T06:26:18.115Z,13.55
2022-10-06T06:28:47.723Z,13.52
2022-10-06T06:31:20.298Z,13.52
2022-10-06T06:33:49.843Z,13.53
2022-10-06T06:36:19.028Z,13.55
2022-10-06T06:38:52.004Z,13.59
2022-10-06T06:41:21.815Z,13.62
2022-10-06T06:43:50.510Z,13.63
2022-10-06T06:46:20.036Z,13.64
2022-10-06T06:48:48.450Z,13.65
2022-10-06T06:51:16.342Z,13.67
2022-10-06T06:53:44.273Z,13.63
2022-10-06T06:56:13.548Z,13.51
2022-10-06T06:58:46.310Z,13.43
2022-10-06T07:01:16.056Z,13.39
2022-10-06T07:03:57.047Z,13.35
2022-10-06T07:06:28.769Z,13.35
2022-10-06T07:08:58.395Z,13.35
2022-10-06T07:11:29.169Z,13.36
2022-10-06T07:14:01.088Z,13.36
2022-10-06T07:16:47.992Z,13.38
2022-10-06T07:19:34.415Z,13.38
2022-10-06T07:22:21.759Z,13.37
2022-10-06T07:25:07.118Z,13.38
2022-10-06T07:27:38.512Z,13.40
2022-10-06T07:30:07.284Z,13.41
2022-10-06T07:32:35.126Z,13.44
2022-10-06T07:35:04.257Z,13.49
2022-10-06T07:37:32.203Z,13.55
2022-10-06T07:40:00.102Z,13.66
2022-10-06T07:42:27.979Z,13.73
2022-10-06T07:45:14.714Z,13.80
2022-10-06T07:47:42.616Z,13.83
2022-10-06T07:50:12.925Z,13.81
2022-10-06T07:52:40.785Z,13.78
2022-10-06T07:55:09.442Z,13.76
2022-10-06T07:57:37.310Z,13.81
2022-10-06T08:00:08.131Z,13.89
2022-10-06T08:02:36.326Z,14.00
2022-10-06T08:05:05.064Z,14.08
2022-10-06T08:07:32.987Z,14.12
2022-10-06T08:10:00.870Z,14.09
2022-10-06T08:12:34.638Z,14.07
2022-10-06T08:15:07.080Z,14.07
2022-10-06T08:17:37.558Z,14.16
2022-10-06T08:20:07.421Z,14.16
2022-10-06T08:22:36.313Z,14.14
2022-10-06T08:25:08.578Z,14.10
2022-10-06T08:27:37.903Z,14.07
2022-10-06T08:30:07.312Z,14.06
2022-10-06T08:32:36.602Z,14.06
2022-10-06T08:35:04.621Z,14.07
2022-10-06T08:37:32.507Z,14.07
2022-10-06T08:40:00.362Z,14.08
2022-10-06T08:42:35.594Z,14.12
2022-10-06T08:45:06.028Z,14.20
2022-10-06T08:47:37.630Z,14.32
2022-10-06T08:50:10.511Z,14.35
2022-10-06T08:52:49.329Z,14.39
2022-10-06T08:55:30.615Z,14.41
2022-10-06T08:58:11.813Z,14.43
2022-10-06T09:00:39.825Z,14.45
2022-10-06T09:03:23.062Z,14.48
2022-10-06T09:05:53.931Z,14.53
2022-10-06T09:08:39.785Z,14.63
2022-10-06T09:11:22.245Z,14.73
2022-10-06T09:13:54.272Z,14.81
2022-10-06T09:16:29.247Z,14.91
2022-10-06T09:19:08.793Z,14.99
2022-10-06T09:21:43.324Z,15.10
2022-10-06T09:24:15.870Z,15.22
2022-10-06T09:26:46.610Z,15.39
2022-10-06T09:29:15.258Z,15.53
2022-10-06T09:31:50.537Z,15.66
2022-10-06T09:34:26.545Z,15.71
2022-10-06T09:37:03.059Z,15.78
2022-10-06T09:39:36.570Z,15.83
2022-10-06T09:42:12.586Z,15.90
2022-10-06T09:44:48.122Z,15.93
2022-10-06T09:47:35.916Z,15.92
2022-10-06T09:50:16.374Z,15.96
2022-10-06T09:53:03.487Z,15.96
2022-10-06T09:55:34.219Z,15.94
2022-10-06T09:58:03.027Z,15.97
2022-10-06T10:00:33.043Z,15.95
2022-10-06T10:03:03.953Z,15.95
2022-10-06T10:05:35.209Z,15.96
2022-10-06T10:08:06.268Z,16.02
2022-10-06T10:10:36.577Z,16.14
2022-10-06T10:13:18.622Z,16.28
2022-10-06T10:15:53.628Z,16.37
2022-10-06T10:18:26.685Z,16.45
2022-10-06T10:20:59.089Z,16.51
2022-10-06T10:23:32.052Z,16.54
2022-10-06T10:26:27.166Z,16.54
2022-10-06T10:29:42.377Z,16.52
2022-10-06T10:32:15.384Z,16.57
2022-10-06T10:35:11.738Z,16.76
2022-10-06T10:37:47.598Z,16.91
2022-10-06T10:40:36.158Z,17.04
2022-10-06T10:43:12.525Z,17.07
2022-10-06T10:45:45.570Z,16.99
2022-10-06T10:48:19.821Z,16.99
2022-10-06T10:50:56.871Z,17.01
2022-10-06T10:53:32.646Z,16.93
2022-10-06T10:56:01.598Z,16.82
2022-10-06T10:58:33.123Z,16.74
2022-10-06T11:01:09.235Z,16.73
2022-10-06T11:03:37.390Z,16.81
2022-10-06T11:06:27.934Z,16.86
2022-10-06T11:09:02.664Z,16.91
2022-10-06T11:11:51.296Z,16.97
2022-10-06T11:14:32.300Z,17.04
2022-10-06T11:17:10.090Z,17.16
2022-10-06T11:19:48.940Z,17.15
2022-10-06T11:22:27.673Z,17.12
2022-10-06T11:25:05.705Z,17.09
2022-10-06T11:27:44.729Z,17.10
2022-10-06T11:30:18.289Z,17.20
2022-10-06T11:32:56.184Z,17.24
2022-10-06T11:35:27.049Z,17.23
2022-10-06T11:37:58.834Z,17.37
2022-10-06T11:40:38.195Z,17.46
2022-10-06T11:43:15.441Z,17.60
2022-10-06T11:45:49.477Z,17.61
2022-10-06T11:48:26.634Z,17.75
2022-10-06T11:50:56.500Z,17.84
2022-10-06T11:53:38.849Z,17.88
2022-10-06T11:56:42.312Z,18.09
2022-10-06T11:59:13.733Z,18.23
2022-10-06T12:02:00.930Z,18.38
2022-10-06T12:04:29.310Z,18.45
2022-10-06T12:07:04.877Z,18.43
2022-10-06T12:09:53.661Z,18.39
2022-10-06T12:13:06.863Z,18.32
2022-10-06T12:19:03.897Z,18.35
2022-10-06T12:21:40.162Z,18.41
2022-10-06T12:24:21.948Z,18.48
2022-10-06T12:26:59.299Z,18.45
2022-10-06T12:29:41.698Z,18.29
2022-10-06T12:32:21.013Z,18.37
2022-10-06T12:35:03.304Z,18.46
2022-10-06T12:37:51.489Z,18.63
2022-10-06T12:40:55.335Z,18.69
2022-10-06T12:43:59.218Z,18.53
2022-10-06T12:46:46.593Z,18.45
2022-10-06T12:49:46.547Z,18.57
2022-10-06T12:52:44.529Z,18.87
2022-10-06T12:55:43.058Z,18.97
2022-10-06T12:58:19.605Z,18.93
2022-10-06T13:00:48.361Z,18.99
2022-10-06T13:03:20.642Z,18.95
2022-10-06T13:05:56.185Z,18.82
2022-10-06T13:08:26.224Z,18.75
2022-10-06T13:11:12.627Z,18.79
2022-10-06T13:13:47.849Z,18.91
2022-10-06T13:16:15.855Z,18.95
2022-10-06T13:18:43.872Z,18.89
2022-10-06T13:21:16.538Z,18.89
2022-10-06T13:23:46.604Z,18.92
2022-10-06T13:26:22.947Z,19.29
2022-10-06T13:28:52.917Z,19.60
2022-10-06T13:31:23.469Z,19.83
2022-10-06T13:33:55.234Z,19.69
2022-10-06T13:36:25.466Z,19.67
2022-10-06T13:38:53.464Z,19.66
2022-10-06T13:41:28.175Z,19.73
2022-10-06T13:43:59.352Z,19.80
2022-10-06T13:46:29.587Z,19.80
2022-10-06T13:49:03.527Z,19.58
2022-10-06T13:51:33.968Z,19.66
2022-10-06T13:54:05.284Z,19.58
2022-10-06T13:56:38.790Z,19.77
2022-10-06T13:59:34.755Z,19.78
2022-10-06T14:02:21.501Z,19.93
2022-10-06T14:05:37.241Z,19.93
2022-10-06T14:08:22.103Z,19.74
2022-10-06T14:10:52.865Z,19.80
2022-10-06T14:13:24.169Z,19.81
2022-10-06T14:15:54.459Z,19.68
2022-10-06T14:18:25.992Z,19.54
2022-10-06T14:20:54.764Z,19.39
2022-10-06T14:23:49.821Z,19.61
2022-10-06T14:26:20.111Z,19.53
2022-10-06T14:28:51.547Z,19.57
2022-10-06T14:31:20.182Z,19.73
2022-10-06T14:33:49.491Z,19.84
2022-10-06T14:36:20.643Z,19.94
2022-10-06T14:38:52.033Z,20.04
2022-10-06T14:41:24.808Z,20.12
2022-10-06T14:43:56.283Z,20.09
2022-10-06T14:46:25.477Z,20.10
2022-10-06T14:48:53.938Z,20.26
2022-10-06T14:51:24.314Z,20.20
2022-10-06T14:53:54.679Z,20.02
2022-10-06T14:56:23.997Z,19.92
2022-10-06T14:58:53.013Z,20.04
2022-10-06T15:01:25.037Z,20.15
2022-10-06T15:03:53.961Z,19.95
2022-10-06T15:06:39.241Z,19.59
2022-10-06T15:09:09.126Z,19.21
2022-10-06T15:11:37.236Z,19.02
2022-10-06T15:14:06.059Z,18.86
2022-10-06T15:16:34.827Z,18.71
2022-10-06T15:19:05.470Z,18.76
2022-10-06T15:21:34.273Z,18.85
2022-10-06T15:24:04.602Z,19.14
2022-10-06T15:26:52.126Z,19.13
2022-10-06T15:29:20.174Z,18.99
2022-10-06T15:31:52.768Z,18.85
2022-10-06T15:34:23.353Z,18.54
2022-10-06T15:36:52.605Z,18.35
2022-10-06T15:39:22.332Z,18.45
2022-10-06T15:41:52.284Z,18.50
2022-10-06T15:44:21.003Z,18.73
2022-10-06T15:46:50.699Z,18.89
2022-10-06T15:49:21.005Z,19.12
2022-10-06T15:51:50.695Z,19.22
2022-10-06T15:54:20.772Z,19.17
2022-10-06T15:56:49.596Z,19.06
2022-10-06T15:59:22.682Z,18.88
2022-10-06T16:01:52.082Z,18.70
2022-10-06T16:04:29.535Z,18.67
2022-10-06T16:07:00.574Z,18.66
2022-10-06T16:09:30.206Z,18.62
2022-10-06T16:12:00.176Z,18.56
2022-10-06T16:14:30.209Z,18.75
2022-10-06T16:17:01.592Z,18.69
2022-10-06T16:19:31.740Z,18.65
2022-10-06T16:22:00.728Z,18.60
2022-10-06T16:24:29.128Z,18.91
2022-10-06T16:26:58.142Z,18.97
2022-10-06T16:29:26.674Z,19.01
2022-10-06T16:31:56.325Z,19.19
2022-10-06T16:34:25.457Z,19.03
2022-10-06T16:36:53.525Z,18.91
2022-10-06T16:39:23.095Z,18.69
2022-10-06T16:41:52.074Z,18.49
2022-10-06T16:44:20.283Z,18.42
2022-10-06T16:46:48.612Z,18.29
2022-10-06T16:49:18.582Z,18.21
2022-10-06T16:51:46.908Z,18.15
2022-10-06T16:54:17.217Z,18.07
2022-10-06T16:56:46.739Z,17.98
2022-10-06T16:59:16.475Z,17.85
2022-10-06T17:01:45.295Z,17.68
2022-10-06T17:04:15.309Z,17.52
2022-10-06T17:06:46.919Z,17.46
2022-10-06T17:09:17.215Z,17.38
2022-10-06T17:11:47.510Z,17.35
2022-10-06T17:14:16.507Z,17.32
2022-10-06T17:16:46.712Z,17.23
2022-10-06T17:19:16.491Z,17.17
2022-10-06T17:21:48.729Z,17.10
2022-10-06T17:24:18.734Z,17.04
2022-10-06T17:26:48.914Z,16.99
2022-10-06T17:29:19.054Z,16.92
2022-10-06T17:31:48.602Z,16.85
2022-10-06T17:34:21.838Z,16.78
2022-10-06T17:36:53.450Z,16.71
2022-10-06T17:39:23.048Z,16.65
2022-10-06T17:41:53.537Z,16.66
2022-10-06T17:44:24.197Z,16.63
2022-10-06T17:46:55.167Z,16.66
2022-10-06T17:49:24.926Z,16.67
2022-10-06T17:51:55.854Z,16.65
2022-10-06T17:54:25.764Z,16.64
2022-10-06T17:56:55.941Z,16.59
2022-10-06T17:59:25.875Z,16.56
2022-10-06T18:01:56.409Z,16.51
2022-10-06T18:04:25.033Z,16.43
2022-10-06T18:06:55.197Z,16.41
2022-10-06T18:09:23.894Z,16.41
2022-10-06T18:11:55.818Z,16.41
2022-10-06T18:14:25.613Z,16.42
2022-10-06T18:16:56.756Z,16.41
2022-10-06T18:19:28.593Z,16.40
2022-10-06T18:21:59.820Z,16.34
2022-10-06T18:24:29.191Z,16.28
2022-10-06T18:26:59.738Z,16.22
2022-10-06T18:29:30.508Z,16.17
2022-10-06T18:32:09.415Z,16.11
2022-10-06T18:37:36.004Z,16.01
2022-10-06T18:40:06.531Z,15.96
2022-10-06T18:42:35.901Z,15.94
2022-10-06T18:45:21.355Z,15.94
2022-10-06T18:48:07.018Z,15.93
2022-10-06T18:50:35.248Z,15.93
2022-10-06T18:53:05.102Z,15.92
2022-10-06T18:55:35.034Z,15.93
2022-10-06T18:58:03.339Z,15.95
2022-10-06T19:00:31.257Z,15.97
2022-10-06T19:02:59.185Z,15.98
2022-10-06T19:05:27.090Z,15.99
2022-10-06T19:07:55.815Z,16.00
2022-10-06T19:10:25.085Z,16.00
2022-10-06T19:12:52.993Z,16.00
2022-10-06T19:15:21.530Z,16.01
2022-10-06T19:17:49.950Z,16.01
2022-10-06T19:20:18.483Z,16.00
2022-10-06T19:22:47.592Z,15.98
2022-10-06T19:25:18.840Z,15.97
2022-10-06T19:27:48.676Z,15.98
2022-10-06T19:30:16.642Z,16.00
2022-10-06T19:32:44.655Z,16.04
2022-10-06T19:35:12.652Z,16.05
2022-10-06T19:37:41.430Z,16.00
2022-10-06T19:40:11.438Z,15.95
2022-10-06T19:42:47.988Z,15.93
2022-10-06T19:45:19.651Z,15.92
2022-10-06T19:47:47.944Z,15.92
2022-10-06T19:50:17.452Z,15.89
2022-10-06T19:52:46.314Z,15.90
2022-10-06T19:55:14.464Z,15.89
2022-10-06T19:57:43.035Z,15.90
2022-10-06T20:00:12.496Z,15.89
2022-10-06T20:02:43.265Z,15.85
2022-10-06T20:05:12.439Z,15.83
2022-10-06T20:07:40.642Z,15.85
2022-10-06T20:10:09.277Z,15.87
2022-10-06T20:12:38.395Z,15.85
2022-10-06T20:15:07.601Z,15.85
2022-10-06T20:17:36.113Z,15.84
2022-10-06T20:20:06.239Z,15.83
2022-10-06T20:22:34.126Z,15.86
2022-10-06T20:25:02.547Z,15.87
2022-10-06T20:27:30.624Z,15.85
2022-10-06T20:29:59.158Z,15.85
2022-10-06T20:32:27.483Z,15.86
2022-10-06T20:34:55.575Z,15.87
2022-10-06T20:37:24.860Z,15.87
2022-10-06T20:40:10.635Z,15.84
2022-10-06T20:42:40.063Z,15.83
2022-10-06T20:45:08.746Z,15.82
2022-10-06T20:47:36.663Z,15.82
2022-10-06T20:50:04.945Z,15.83
2022-10-06T20:52:34.369Z,15.81
2022-10-06T20:55:02.269Z,15.75
2022-10-06T20:57:44.131Z,15.69
2022-10-06T21:00:14.356Z,15.63
2022-10-06T21:02:42.298Z,15.57
2022-10-06T21:05:10.523Z,15.49
2022-10-06T21:07:39.783Z,15.48
2022-10-06T21:10:08.972Z,15.47
2022-10-06T21:12:36.893Z,15.46
2022-10-06T21:15:05.366Z,15.44
2022-10-06T21:17:33.247Z,15.42
2022-10-06T21:20:01.159Z,15.41
2022-10-06T21:22:31.145Z,15.38
2022-10-06T21:25:00.396Z,15.37
2022-10-06T21:27:28.605Z,15.36
2022-10-06T21:29:56.508Z,15.34
2022-10-06T21:32:25.442Z,15.36
2022-10-06T21:34:55.866Z,15.37
2022-10-06T21:37:23.839Z,15.35
2022-10-06T21:39:51.704Z,15.34
2022-10-06T21:42:20.975Z,15.30
2022-10-06T21:44:48.845Z,15.31
2022-10-06T21:47:16.786Z,15.31
2022-10-06T21:49:44.724Z,15.29
2022-10-06T21:52:12.598Z,15.30
2022-10-06T21:54:40.492Z,15.29
2022-10-06T21:57:08.702Z,15.29
2022-10-06T21:59:37.960Z,15.31
2022-10-06T22:02:05.886Z,15.32
2022-10-06T22:04:33.652Z,15.35
2022-10-06T22:07:01.541Z,15.37
2022-10-06T22:09:29.391Z,15.34
2022-10-06T22:11:57.304Z,15.32
2022-10-06T22:14:25.164Z,15.29
2022-10-06T22:16:54.405Z,15.28
2022-10-06T22:19:22.378Z,15.28
2022-10-06T22:21:50.279Z,15.29
2022-10-06T22:24:20.222Z,15.32
2022-10-06T22:26:48.707Z,15.35
2022-10-06T22:29:18.652Z,15.43
2022-10-06T22:31:47.939Z,15.48
2022-10-06T22:34:19.615Z,15.52
2022-10-06T22:36:47.587Z,15.54
2022-10-06T22:39:15.552Z,15.55
2022-10-06T22:41:44.040Z,15.55
2022-10-06T22:44:11.930Z,15.51
2022-10-06T22:46:39.925Z,15.48
2022-10-06T22:49:07.903Z,15.46
2022-10-06T22:51:37.200Z,15.41
2022-10-06T22:54:05.473Z,15.42
2022-10-06T22:56:34.984Z,15.40
2022-10-06T22:59:03.069Z,15.39
2022-10-06T23:01:31.309Z,15.39
2022-10-06T23:03:59.685Z,15.39
2022-10-06T23:06:29.740Z,15.38
2022-10-06T23:08:59.644Z,15.37
2022-10-06T23:11:27.657Z,15.37
2022-10-06T23:13:55.666Z,15.37
2022-10-06T23:16:23.986Z,15.42
2022-10-06T23:18:52.210Z,15.46
2022-10-06T23:21:22.610Z,15.51
2022-10-06T23:23:52.631Z,15.52
2022-10-06T23:26:23.493Z,15.53
2022-10-06T23:28:53.582Z,15.49
2022-10-06T23:31:21.746Z,15.47
2022-10-06T23:33:50.074Z,15.45
2022-10-06T23:36:18.441Z,15.40
2022-10-06T23:38:47.032Z,15.38
2022-10-06T23:41:15.179Z,15.35
2022-10-06T23:43:44.659Z,15.34
2022-10-06T23:46:12.762Z,15.34
2022-10-06T23:48:40.798Z,15.33
2022-10-06T23:51:11.357Z,15.33
2022-10-06T23:53:39.265Z,15.32
2022-10-06T23:56:07.809Z,15.31
2022-10-06T23:58:36.181Z,15.27
